Flight Track Log - Related Links

Times and Time Zones

All times are in EDT time to prevent confusion due to time zone crossing. See the KAL694 flight status page for this flight to view local times or setup timezone preferences in your user account.

Time Position Orientation Groundspeed Altitude Reporting Facility
EDT Latitude Longitude Course Direction KTS MPH feet Rate Location/Type
Mon 07:57:15 AM 26.4658 121.7513 19° North  Level Estimated
Mon 07:58:15 AM 26.5568 121.7857 19° North  Level Estimated
Mon 07:59:15 AM 26.6477 121.8202 19° North  Level Estimated
Mon 08:00:15 AM 26.7387 121.8547 19° North  Level Estimated
Mon 08:01:15 AM 26.8296 121.8893 19° North  Level Estimated
Mon 08:02:15 AM 26.9205 121.9240 19° North  Level Estimated
Mon 08:03:15 AM 27.0114 121.9587 19° North  Level Estimated
Mon 08:04:15 AM 27.1024 121.9934 19° North  Level Estimated
Mon 08:05:15 AM 27.1933 122.0283 19° North  Level Estimated
Mon 08:06:15 AM 27.2841 122.0631 19° North  Level Estimated
Mon 08:07:15 AM 27.3750 122.0981 19° North  Level Estimated
Mon 08:08:15 AM 27.4659 122.1330 19° North  Level Estimated
Mon 08:09:15 AM 27.5567 122.1681 19° North  Level Estimated
Mon 08:10:15 AM 27.6476 122.2032 19° North  Level Estimated
Mon 08:11:15 AM 27.7433 122.2403 19° North  Level Estimated
Mon 08:12:15 AM 27.8391 122.2774 19° North  Level Estimated
Mon 08:13:15 AM 27.9348 122.3146 19° North  Level Estimated
Mon 08:14:15 AM 28.0305 122.3518 19° North  Level Estimated
Mon 08:15:15 AM 28.1262 122.3891 19° North  Level Estimated
Mon 08:16:15 AM 28.2219 122.4265 19° North  Level Estimated
Mon 08:17:15 AM 28.3176 122.4640 19° North  Level Estimated
Mon 08:18:15 AM 28.4132 122.5015 19° North  Level Estimated
Mon 08:19:15 AM 28.5089 122.5391 19° North  Level Estimated
Mon 08:20:15 AM 28.6045 122.5768 19° North  Level Estimated
Mon 08:21:15 AM 28.7002 122.6145 19° North  Level Estimated
Mon 08:22:15 AM 28.7958 122.6523 19° North  Level Estimated
Mon 08:23:15 AM 28.8914 122.6901 19° North  Level Estimated
Mon 08:24:15 AM 28.9870 122.7281 19° North  Level Estimated
Mon 08:25:15 AM 29.0826 122.7661 19° North  Level Estimated
Mon 08:26:15 AM 29.1782 122.8042 19° North  Level Estimated
Mon 08:27:15 AM 29.2738 122.8423 19° North  Level Estimated
Mon 08:28:15 AM 29.3693 122.8805 19° North  Level Estimated
Mon 08:29:15 AM 29.4649 122.9188 19° North  Level Estimated
Mon 08:30:15 AM 29.5604 122.9572 19° North  Level Estimated
Mon 08:31:15 AM 29.6559 122.9956 19° North  Level Estimated
Mon 08:32:15 AM 29.7514 123.0341 19° North  Level Estimated
Mon 08:33:15 AM 29.8470 123.0727 19° North  Level Estimated
Mon 08:34:15 AM 29.9424 123.1114 19° North  Level Estimated
Mon 08:35:15 AM 30.0379 123.1501 19° North  Level Estimated
Mon 08:36:15 AM 30.1334 123.1889 19° North  Level Estimated
Mon 08:37:15 AM 30.2288 123.2278 19° North  Level Estimated
Mon 08:38:15 AM 30.3243 123.2667 19° North  Level Estimated
Mon 08:39:15 AM 30.4197 123.3058 19° North  Level Estimated
Mon 08:40:15 AM 30.5152 123.3449 19° North  Level Estimated
Mon 08:41:15 AM 30.6106 123.3841 19° North  Level Estimated
Mon 08:42:15 AM 30.7060 123.4233 20° North  Level Estimated
Mon 08:43:15 AM 30.8014 123.4627 20° North  Level Estimated
Mon 08:44:15 AM 30.8967 123.5021 20° North  Level Estimated
Mon 08:45:15 AM 30.9921 123.5416 20° North  Level Estimated
Mon 08:46:15 AM 31.0875 123.5812 20° North  Level Estimated
Mon 08:47:15 AM 31.1828 123.6208 20° North  Level Estimated
Mon 08:48:15 AM 31.2781 123.6606 20° North  Level Estimated
Mon 08:49:15 AM 31.3735 123.7004 20° North  Level Estimated
Mon 08:50:15 AM 31.4688 123.7403 20° North  Level Estimated
Mon 08:51:15 AM 31.5641 123.7803 20° North  Level Estimated
Mon 08:52:15 AM 31.6593 123.8203 20° North  Level Estimated
Mon 08:53:15 AM 31.7546 123.8605 20° North  Level Estimated
Mon 08:54:15 AM 31.8499 123.9007 20° North  Level Estimated
Mon 08:55:15 AM 31.9451 123.9410 20° North  Level Estimated
Mon 08:56:15 AM 32.0403 123.9814 20° North  Level Estimated
Mon 08:57:15 AM 32.1356 124.0218 20° North  Level Estimated
Mon 08:58:15 AM 32.2308 124.0624 20° North  Level Estimated
Mon 08:59:15 AM 32.3260 124.1031 20° North  Level Estimated
Mon 09:00:15 AM 32.4211 124.1438 20° North  Level Estimated
Mon 09:01:15 AM 32.5163 124.1846 20° North  Level Estimated
Mon 09:02:15 AM 32.6115 124.2255 20° North  Level Estimated
Mon 09:03:15 AM 32.7066 124.2665 20° North  Level Estimated
Mon 09:04:15 AM 32.8017 124.3076 20° North  Level Estimated
Mon 09:05:15 AM 32.8968 124.3487 20° North  Level Estimated
Mon 09:06:15 AM 32.9919 124.3900 20° North  Level Estimated
Mon 09:07:15 AM 33.0870 124.4313 20° North  Level Estimated
Mon 09:08:15 AM 33.1821 124.4728 20° North  Level Estimated
Mon 09:09:15 AM 33.2771 124.5143 20° North  Level Estimated
Mon 09:10:15 AM 33.3722 124.5559 20° North  Level Estimated
Mon 09:11:15 AM 33.4679 124.5979 20° North  Level Estimated
Mon 09:12:15 AM 33.5637 124.6401 20° North  Level Estimated
Mon 09:13:15 AM 33.6594 124.6823 20° North  Level Estimated
Mon 09:14:15 AM 33.7552 124.7246 20° North  Level Estimated
Mon 09:15:15 AM 33.8509 124.7670 20° North  Level Estimated
Mon 09:16:15 AM 33.9466 124.8095 20° North  Level Estimated
Mon 09:17:15 AM 34.0422 124.8521 20° North  Level Estimated
Mon 09:18:15 AM 34.1379 124.8948 20° North  Level Estimated
Mon 09:19:15 AM 34.2336 124.9375 20° North  Level Estimated
Mon 09:20:15 AM 34.3292 124.9804 20° North  Level Estimated
Mon 09:21:15 AM 34.4248 125.0234 20° North  Level Estimated
Mon 09:22:15 AM 34.5204 125.0665 20° North  Level Estimated
Mon 09:23:15 AM 34.6160 125.1097 20° North  Level Estimated
Mon 09:24:15 AM 34.7116 125.1529 20° North  Level Estimated
Mon 09:25:15 AM 34.8071 125.1963 20° North  Level Estimated
Mon 09:26:15 AM 34.9027 125.2398 20° North  Level Estimated
Mon 09:27:15 AM 34.9982 125.2834 21° North  Level Estimated
Mon 09:28:15 AM 35.0937 125.3271 21° North  Level Estimated
Mon 09:29:15 AM 35.1892 125.3708 21° North  Level Estimated
Mon 09:30:15 AM 35.2847 125.4147 21° North  Level Estimated
Mon 09:31:15 AM 35.3802 125.4587 21° North  Level Estimated
Mon 09:32:15 AM 35.4756 125.5028 21° North  Level Estimated
Mon 09:33:15 AM 35.5710 125.5470 21° North  Level Estimated
Mon 09:34:15 AM 35.6665 125.5913 21° North  Level Estimated
Mon 09:35:15 AM 35.7619 125.6357 21° North  Level Estimated
Mon 09:36:15 AM 35.8572 125.6803 21° North  Level Estimated
Mon 09:37:15 AM 35.9526 125.7249 21° North  Level Estimated
Mon 09:38:15 AM 36.0480 125.7696 21° North  Level Estimated
Mon 09:39:15 AM 36.1433 125.8145 21° North  Level Estimated
Mon 09:40:15 AM 36.2386 125.8594 21° North  Level Estimated
Mon 09:41:15 AM 36.3339 125.9045 21° North  Level Estimated
Mon 09:42:15 AM 36.4292 125.9496 21° North  Level Estimated
Mon 09:43:15 AM 36.5245 125.9949 21° North  Level Estimated
Mon 09:44:15 AM 36.6197 126.0403 21° North  Level Estimated
Mon 09:45:15 AM 36.7150 126.0858 21° North  Level Estimated
Mon 09:46:15 AM 36.8102 126.1314 21° North  Level Estimated
Mon 09:47:15 AM 36.9054 126.1772 21° North  Level Estimated
Mon 09:48:15 AM 37.0005 126.2230 21° North  Level Estimated
Mon 09:49:15 AM 37.0957 126.2690 21° North  Level Estimated
Mon 09:50:15 AM 37.1909 126.3151 21° North  Level Estimated
Mon 09:51:15 AM 37.2860 126.3613 21° North  Level Estimated
Mon 09:52:15 AM 37.3811 126.4076 21° North  Level Estimated
Mon 09:53:15 AM 37.4762 126.4540 201° Southwest  Level Estimated
Mon 09:54:15 AM 37.3811 126.4075 21° North  Level Estimated
Mon 09:55:15 AM 37.4762 126.4540 201° Southwest  Level Estimated
Mon 09:56:15 AM 37.3811 126.4075 21° North  Level Estimated
Mon 09:57:15 AM 37.4762 126.4540 201° Southwest  Level Estimated
Mon 09:58:15 AM 37.3811 126.4075 21° North  Level Estimated
Mon 09:59:15 AM 37.4762 126.4540 201° Southwest  Level Estimated
Mon 10:00:15 AM 37.3811 126.4075 21° North  Level Estimated
Mon 10:01:15 AM 37.4762 126.4540 201° Southwest  Level Estimated
Mon 10:02:15 AM 37.3811 126.4075 21° North  Level Estimated
Mon 10:03:15 AM 37.4762 126.4540 201° Southwest  Level Estimated
Mon 10:04:15 AM 37.3811 126.4075 21° North  Level Estimated
Mon 10:05:15 AM 37.4762 126.4540 201° Southwest  Level Estimated
Mon 10:06:15 AM 37.3811 126.4075 201° Southwest  Level Estimated

Login

Don't have an account? Register now (free) for customized features, flight alerts, and more!